sensor_id;sensor_type;location;lat;lon;timestamp;pressure;altitude;pressure_sealevel;temperature;humidity
63808;BME280;49961;43.970;22.868;2023-01-16T00:00:47;101495.66;;;6.74;100.00
63808;BME280;49961;43.970;22.868;2023-01-16T00:01:48;101379.88;;;5.88;100.00
63808;BME280;49961;43.970;22.868;2023-01-16T00:02:48;101505.50;;;6.75;100.00
63808;BME280;49961;43.970;22.868;2023-01-16T00:03:49;101506.28;;;6.75;100.00
63808;BME280;49961;43.970;22.868;2023-01-16T00:04:49;101509.84;;;6.76;100.00
63808;BME280;49961;43.970;22.868;2023-01-16T00:05:50;101501.97;;;6.74;100.00
63808;BME280;49961;43.970;22.868;2023-01-16T00:06:50;101469.56;;;6.54;100.00
63808;BME280;49961;43.970;22.868;2023-01-16T00:07:51;101498.78;;;6.72;100.00
63808;BME280;49961;43.970;22.868;2023-01-16T00:08:51;101496.06;;;6.76;100.00
63808;BME280;49961;43.970;22.868;2023-01-16T00:09:52;101488.19;;;6.74;100.00
63808;BME280;49961;43.970;22.868;2023-01-16T00:10:52;101486.19;;;6.71;100.00
63808;BME280;49961;43.970;22.868;2023-01-16T00:11:53;101441.53;;;6.38;100.00
63808;BME280;49961;43.970;22.868;2023-01-16T00:12:53;101489.31;;;6.70;100.00
63808;BME280;49961;43.970;22.868;2023-01-16T00:13:54;101493.69;;;6.71;100.00
63808;BME280;49961;43.970;22.868;2023-01-16T00:14:55;101480.22;;;6.62;100.00
63808;BME280;49961;43.970;22.868;2023-01-16T00:15:56;101492.88;;;6.70;100.00
63808;BME280;49961;43.970;22.868;2023-01-16T00:16:56;101494.47;;;6.71;100.00
63808;BME280;49961;43.970;22.868;2023-01-16T00:17:57;101473.50;;;6.56;100.00
63808;BME280;49961;43.970;22.868;2023-01-16T00:18:57;101432.44;;;6.30;100.00
63808;BME280;49961;43.970;22.868;2023-01-16T00:19:58;101465.59;;;6.48;100.00
63808;BME280;49961;43.970;22.868;2023-01-16T00:20:59;101496.84;;;6.73;100.00
63808;BME280;49961;43.970;22.868;2023-01-16T00:21:59;101495.28;;;6.75;100.00
63808;BME280;49961;43.970;22.868;2023-01-16T00:23:00;101470.41;;;6.61;100.00
63808;BME280;49961;43.970;22.868;2023-01-16T00:24:00;101491.34;;;6.76;100.00
63808;BME280;49961;43.970;22.868;2023-01-16T00:25:01;101493.31;;;6.76;100.00
63808;BME280;49961;43.970;22.868;2023-01-16T00:26:05;101490.53;;;6.72;100.00
63808;BME280;49961;43.970;22.868;2023-01-16T00:27:06;101474.78;;;6.66;100.00
63808;BME280;49961;43.970;22.868;2023-01-16T00:28:07;101482.25;;;6.69;100.00
63808;BME280;49961;43.970;22.868;2023-01-16T00:29:08;101476.75;;;6.69;100.00
63808;BME280;49961;43.970;22.868;2023-01-16T00:30:08;101475.56;;;6.70;100.00
63808;BME280;49961;43.970;22.868;2023-01-16T00:31:09;101470.47;;;6.68;100.00
63808;BME280;49961;43.970;22.868;2023-01-16T00:32:10;101474.38;;;6.67;100.00
63808;BME280;49961;43.970;22.868;2023-01-16T00:33:11;101408.47;;;6.27;100.00
63808;BME280;49961;43.970;22.868;2023-01-16T00:34:11;101469.63;;;6.64;100.00
63808;BME280;49961;43.970;22.868;2023-01-16T00:35:12;101446.69;;;6.39;100.00
63808;BME280;49961;43.970;22.868;2023-01-16T00:36:12;101462.88;;;6.55;100.00
63808;BME280;49961;43.970;22.868;2023-01-16T00:37:13;101468.84;;;6.64;100.00
63808;BME280;49961;43.970;22.868;2023-01-16T00:38:13;101410.41;;;6.23;100.00
63808;BME280;49961;43.970;22.868;2023-01-16T00:39:14;101425.00;;;6.34;100.00
63808;BME280;49961;43.970;22.868;2023-01-16T00:40:14;101471.97;;;6.62;100.00
63808;BME280;49961;43.970;22.868;2023-01-16T00:41:15;101472.78;;;6.63;100.00
63808;BME280;49961;43.970;22.868;2023-01-16T00:42:15;101430.91;;;6.36;100.00
63808;BME280;49961;43.970;22.868;2023-01-16T00:43:16;101472.38;;;6.61;100.00
63808;BME280;49961;43.970;22.868;2023-01-16T00:44:16;101476.69;;;6.58;100.00
63808;BME280;49961;43.970;22.868;2023-01-16T00:45:16;101470.00;;;6.56;100.00
63808;BME280;49961;43.970;22.868;2023-01-16T00:46:17;101474.69;;;6.55;100.00
63808;BME280;49961;43.970;22.868;2023-01-16T00:47:18;101450.22;;;6.40;100.00
63808;BME280;49961;43.970;22.868;2023-01-16T00:48:18;101395.31;;;6.00;100.00
63808;BME280;49961;43.970;22.868;2023-01-16T00:49:19;101467.97;;;6.46;100.00
63808;BME280;49961;43.970;22.868;2023-01-16T00:50:19;101458.91;;;6.45;100.00
63808;BME280;49961;43.970;22.868;2023-01-16T00:51:20;101393.31;;;6.00;100.00
63808;BME280;49961;43.970;22.868;2023-01-16T00:52:20;101461.25;;;6.40;100.00
63808;BME280;49961;43.970;22.868;2023-01-16T00:53:21;101330.91;;;5.57;100.00
63808;BME280;49961;43.970;22.868;2023-01-16T00:54:21;101449.44;;;6.39;100.00
63808;BME280;49961;43.970;22.868;2023-01-16T00:55:22;101451.00;;;6.40;100.00
63808;BME280;49961;43.970;22.868;2023-01-16T00:56:22;101442.34;;;6.38;100.00
63808;BME280;49961;43.970;22.868;2023-01-16T00:57:23;101361.69;;;5.77;100.00
63808;BME280;49961;43.970;22.868;2023-01-16T00:58:23;101446.69;;;6.39;100.00
63808;BME280;49961;43.970;22.868;2023-01-16T00:59:23;101438.38;;;6.32;100.00
63808;BME280;49961;43.970;22.868;2023-01-16T01:00:24;101444.31;;;6.38;100.00
63808;BME280;49961;43.970;22.868;2023-01-16T01:01:25;101438.38;;;6.32;100.00
63808;BME280;49961;43.970;22.868;2023-01-16T01:02:25;101396.09;;;6.04;100.00
63808;BME280;49961;43.970;22.868;2023-01-16T01:03:28;101440.38;;;6.39;100.00
63808;BME280;49961;43.970;22.868;2023-01-16T01:04:28;101340.03;;;5.68;100.00
63808;BME280;49961;43.970;22.868;2023-01-16T01:05:29;101317.53;;;5.52;100.00
63808;BME280;49961;43.970;22.868;2023-01-16T01:06:30;101442.34;;;6.35;100.00
63808;BME280;49961;43.970;22.868;2023-01-16T01:07:30;101440.34;;;6.32;100.00
63808;BME280;49961;43.970;22.868;2023-01-16T01:08:31;101439.53;;;6.31;100.00
63808;BME280;49961;43.970;22.868;2023-01-16T01:09:31;101434.81;;;6.32;100.00
63808;BME280;49961;43.970;22.868;2023-01-16T01:10:32;101441.91;;;6.33;100.00
63808;BME280;49961;43.970;22.868;2023-01-16T01:11:35;101429.72;;;6.34;100.00
63808;BME280;49961;43.970;22.868;2023-01-16T01:12:36;101352.69;;;5.76;100.00
63808;BME280;49961;43.970;22.868;2023-01-16T01:13:37;101443.91;;;6.36;100.00
63808;BME280;49961;43.970;22.868;2023-01-16T01:14:38;101446.22;;;6.34;100.00
63808;BME280;49961;43.970;22.868;2023-01-16T01:15:38;101434.44;;;6.33;100.00
63808;BME280;49961;43.970;22.868;2023-01-16T01:16:39;101412.72;;;6.21;100.00
63808;BME280;49961;43.970;22.868;2023-01-16T01:17:40;101438.41;;;6.36;100.00
63808;BME280;49961;43.970;22.868;2023-01-16T01:18:40;101437.56;;;6.32;100.00
63808;BME280;49961;43.970;22.868;2023-01-16T01:19:41;101415.84;;;6.16;100.00
63808;BME280;49961;43.970;22.868;2023-01-16T01:20:41;101438.03;;;6.41;100.00
63808;BME280;49961;43.970;22.868;2023-01-16T01:21:42;101318.41;;;5.67;100.00
63808;BME280;49961;43.970;22.868;2023-01-16T01:22:44;101362.28;;;6.00;100.00
63808;BME280;49961;43.970;22.868;2023-01-16T01:23:45;101427.44;;;6.46;100.00
63808;BME280;49961;43.970;22.868;2023-01-16T01:24:49;101426.69;;;6.49;100.00
63808;BME280;49961;43.970;22.868;2023-01-16T01:25:49;101431.00;;;6.54;100.00
63808;BME280;49961;43.970;22.868;2023-01-16T01:26:50;101434.94;;;6.53;100.00
63808;BME280;49961;43.970;22.868;2023-01-16T01:27:51;101424.72;;;6.53;100.00
63808;BME280;49961;43.970;22.868;2023-01-16T01:28:51;101427.88;;;6.59;100.00
63808;BME280;49961;43.970;22.868;2023-01-16T01:29:51;101423.19;;;6.59;100.00
63808;BME280;49961;43.970;22.868;2023-01-16T01:30:52;101418.81;;;6.55;100.00
63808;BME280;49961;43.970;22.868;2023-01-16T01:31:52;101324.50;;;5.90;100.00
63808;BME280;49961;43.970;22.868;2023-01-16T01:32:53;101423.19;;;6.59;100.00
63808;BME280;49961;43.970;22.868;2023-01-16T01:33:53;101419.63;;;6.59;100.00
63808;BME280;49961;43.970;22.868;2023-01-16T01:34:53;101422.75;;;6.54;100.00
63808;BME280;49961;43.970;22.868;2023-01-16T01:35:54;101407.38;;;6.46;100.00
63808;BME280;49961;43.970;22.868;2023-01-16T01:36:54;101415.28;;;6.51;100.00
63808;BME280;49961;43.970;22.868;2023-01-16T01:37:55;101374.59;;;6.20;100.00
63808;BME280;49961;43.970;22.868;2023-01-16T01:38:55;101414.50;;;6.54;100.00
63808;BME280;49961;43.970;22.868;2023-01-16T01:39:55;101410.97;;;6.53;100.00
63808;BME280;49961;43.970;22.868;2023-01-16T01:40:56;101381.69;;;6.24;100.00
63808;BME280;49961;43.970;22.868;2023-01-16T01:41:57;101254.69;;;5.58;100.00
63808;BME280;49961;43.970;22.868;2023-01-16T01:43:16;101406.22;;;6.50;100.00
63808;BME280;49961;43.970;22.868;2023-01-16T01:44:41;101397.16;;;6.46;100.00
63808;BME280;49961;43.970;22.868;2023-01-16T01:45:48;101386.47;;;6.34;100.00
63808;BME280;49961;43.970;22.868;2023-01-16T01:46:50;101395.94;;;6.44;100.00
63808;BME280;49961;43.970;22.868;2023-01-16T01:49:22;101384.56;;;6.49;100.00
63808;BME280;49961;43.970;22.868;2023-01-16T01:51:35;101386.19;;;6.53;100.00
63808;BME280;49961;43.970;22.868;2023-01-16T01:52:37;101334.09;;;6.17;100.00
63808;BME280;49961;43.970;22.868;2023-01-16T01:54:46;101365.69;;;6.47;100.00
63808;BME280;49961;43.970;22.868;2023-01-16T01:55:50;101359.78;;;6.45;100.00
63808;BME280;49961;43.970;22.868;2023-01-16T01:56:57;101364.09;;;6.46;100.00
63808;BME280;49961;43.970;22.868;2023-01-16T01:58:00;101304.97;;;6.12;100.00
63808;BME280;49961;43.970;22.868;2023-01-16T01:59:07;101353.91;;;6.50;100.00
63808;BME280;49961;43.970;22.868;2023-01-16T02:00:19;101348.78;;;6.52;100.00
63808;BME280;49961;43.970;22.868;2023-01-16T02:01:21;101356.28;;;6.52;100.00
63808;BME280;49961;43.970;22.868;2023-01-16T02:02:23;101258.44;;;5.83;100.00
63808;BME280;49961;43.970;22.868;2023-01-16T02:03:36;101357.03;;;6.52;100.00
63808;BME280;49961;43.970;22.868;2023-01-16T02:04:42;101362.97;;;6.54;100.00
63808;BME280;49961;43.970;22.868;2023-01-16T02:05:48;101339.72;;;6.45;100.00
63808;BME280;49961;43.970;22.868;2023-01-16T02:06:55;101320.75;;;6.22;100.00
63808;BME280;49961;43.970;22.868;2023-01-16T02:07:57;101345.66;;;6.57;100.00
63808;BME280;49961;43.970;22.868;2023-01-16T02:08:59;101349.22;;;6.61;100.00
63808;BME280;49961;43.970;22.868;2023-01-16T02:10:20;101344.91;;;6.60;100.00
63808;BME280;49961;43.970;22.868;2023-01-16T02:11:27;101344.91;;;6.60;100.00
63808;BME280;49961;43.970;22.868;2023-01-16T02:12:31;101249.84;;;5.91;100.00
63808;BME280;49961;43.970;22.868;2023-01-16T02:13:31;101346.06;;;6.56;100.00
63808;BME280;49961;43.970;22.868;2023-01-16T02:14:35;101330.69;;;6.48;100.00
63808;BME280;49961;43.970;22.868;2023-01-16T02:15:37;101341.31;;;6.53;100.00
63808;BME280;49961;43.970;22.868;2023-01-16T02:17:09;101279.03;;;6.17;100.00
63808;BME280;49961;43.970;22.868;2023-01-16T02:18:29;101333.41;;;6.41;100.00
63808;BME280;49961;43.970;22.868;2023-01-16T02:29:05;101312.53;;;6.29;100.00
63808;BME280;49961;43.970;22.868;2023-01-16T02:31:36;101314.06;;;6.27;100.00
63808;BME280;49961;43.970;22.868;2023-01-16T02:41:36;101306.53;;;6.13;100.00
63808;BME280;49961;43.970;22.868;2023-01-16T02:43:30;101300.63;;;6.11;100.00
63808;BME280;49961;43.970;22.868;2023-01-16T02:46:29;101303.44;;;6.22;100.00
63808;BME280;49961;43.970;22.868;2023-01-16T02:50:58;101303.44;;;6.25;100.00
63808;BME280;49961;43.970;22.868;2023-01-16T02:52:33;101308.19;;;6.28;100.00
63808;BME280;49961;43.970;22.868;2023-01-16T02:53:51;101193.84;;;5.63;100.00
63808;BME280;49961;43.970;22.868;2023-01-16T02:55:01;101304.28;;;6.33;100.00
63808;BME280;49961;43.970;22.868;2023-01-16T02:56:08;101292.88;;;6.38;100.00
63808;BME280;49961;43.970;22.868;2023-01-16T02:57:19;101303.91;;;6.38;100.00
63808;BME280;49961;43.970;22.868;2023-01-16T02:58:21;101270.81;;;6.24;100.00
63808;BME280;49961;43.970;22.868;2023-01-16T02:59:23;101299.19;;;6.42;100.00
63808;BME280;49961;43.970;22.868;2023-01-16T03:00:25;101295.25;;;6.43;100.00
63808;BME280;49961;43.970;22.868;2023-01-16T03:01:26;101301.56;;;6.43;100.00
63808;BME280;49961;43.970;22.868;2023-01-16T03:02:27;101298.03;;;6.46;100.00
63808;BME280;49961;43.970;22.868;2023-01-16T03:04:52;101302.78;;;6.53;100.00
63808;BME280;49961;43.970;22.868;2023-01-16T03:05:54;101302.41;;;6.58;100.00
63808;BME280;49961;43.970;22.868;2023-01-16T03:12:11;101290.19;;;6.59;100.00
63808;BME280;49961;43.970;22.868;2023-01-16T03:14:56;101273.28;;;6.60;100.00
63808;BME280;49961;43.970;22.868;2023-01-16T03:16:19;101272.09;;;6.61;100.00
63808;BME280;49961;43.970;22.868;2023-01-16T03:19:14;101271.72;;;6.66;100.00
63808;BME280;49961;43.970;22.868;2023-01-16T03:20:57;101266.59;;;6.65;100.00
63808;BME280;49961;43.970;22.868;2023-01-16T03:23:52;101267.03;;;6.67;100.00
63808;BME280;49961;43.970;22.868;2023-01-16T03:26:30;101234.31;;;6.48;100.00
63808;BME280;49961;43.970;22.868;2023-01-16T03:28:26;101276.09;;;6.74;100.00
63808;BME280;49961;43.970;22.868;2023-01-16T03:29:43;101276.09;;;6.78;100.00
63808;BME280;49961;43.970;22.868;2023-01-16T03:32:04;101280.03;;;6.80;100.00
63808;BME280;49961;43.970;22.868;2023-01-16T03:33:13;101276.09;;;6.85;100.00
63808;BME280;49961;43.970;22.868;2023-01-16T03:36:08;101269.81;;;6.88;100.00
63808;BME280;49961;43.970;22.868;2023-01-16T03:37:11;101270.19;;;6.90;100.00
63808;BME280;49961;43.970;22.868;2023-01-16T03:38:16;101262.72;;;6.90;100.00
63808;BME280;49961;43.970;22.868;2023-01-16T03:39:22;101266.25;;;6.84;100.00
63808;BME280;49961;43.970;22.868;2023-01-16T03:40:30;101258.00;;;6.87;100.00
63808;BME280;49961;43.970;22.868;2023-01-16T03:41:33;101268.25;;;6.90;100.00
63808;BME280;49961;43.970;22.868;2023-01-16T03:43:07;101263.91;;;6.93;100.00
63808;BME280;49961;43.970;22.868;2023-01-16T03:44:13;101262.72;;;6.94;100.00
63808;BME280;49961;43.970;22.868;2023-01-16T03:45:26;101259.59;;;6.95;100.00
63808;BME280;49961;43.970;22.868;2023-01-16T03:46:30;101264.72;;;6.97;100.00
63808;BME280;49961;43.970;22.868;2023-01-16T03:47:38;101266.66;;;7.00;100.00
63808;BME280;49961;43.970;22.868;2023-01-16T03:48:47;101265.47;;;7.01;100.00
63808;BME280;49961;43.970;22.868;2023-01-16T03:49:52;101266.66;;;7.00;100.00
63808;BME280;49961;43.970;22.868;2023-01-16T03:50:57;101261.56;;;7.02;100.00
63808;BME280;49961;43.970;22.868;2023-01-16T03:52:02;101260.38;;;7.03;100.00
63808;BME280;49961;43.970;22.868;2023-01-16T03:53:07;101259.56;;;7.02;100.00
63808;BME280;49961;43.970;22.868;2023-01-16T03:58:21;101237.91;;;6.80;100.00
63808;BME280;49961;43.970;22.868;2023-01-16T03:59:24;101250.53;;;6.95;100.00
63808;BME280;49961;43.970;22.868;2023-01-16T04:00:29;101236.72;;;6.98;100.00
63808;BME280;49961;43.970;22.868;2023-01-16T04:01:39;101237.53;;;6.95;100.00
63808;BME280;49961;43.970;22.868;2023-01-16T04:02:51;101189.09;;;6.63;100.00
63808;BME280;49961;43.970;22.868;2023-01-16T04:04:09;101238.34;;;6.99;100.00
63808;BME280;49961;43.970;22.868;2023-01-16T04:05:18;101234.41;;;6.97;100.00
63808;BME280;49961;43.970;22.868;2023-01-16T04:06:25;101226.13;;;7.00;100.00
63808;BME280;49961;43.970;22.868;2023-01-16T04:07:42;101197.78;;;6.82;100.00
63808;BME280;49961;43.970;22.868;2023-01-16T04:08:45;101145.81;;;6.49;100.00
63808;BME280;49961;43.970;22.868;2023-01-16T04:09:54;101215.47;;;7.02;100.00
63808;BME280;49961;43.970;22.868;2023-01-16T04:10:57;101229.69;;;7.04;100.00
63808;BME280;49961;43.970;22.868;2023-01-16T04:11:58;101221.41;;;7.04;100.00
63808;BME280;49961;43.970;22.868;2023-01-16T04:13:17;101218.66;;;7.08;100.00
63808;BME280;49961;43.970;22.868;2023-01-16T04:14:21;101227.28;;;7.10;100.00
63808;BME280;49961;43.970;22.868;2023-01-16T04:15:23;101228.09;;;7.10;100.00
63808;BME280;49961;43.970;22.868;2023-01-16T04:16:25;101220.59;;;7.07;100.00
63808;BME280;49961;43.970;22.868;2023-01-16T04:17:28;101224.94;;;7.05;100.00
63808;BME280;49961;43.970;22.868;2023-01-16T04:18:33;101236.34;;;7.00;100.00
63808;BME280;49961;43.970;22.868;2023-01-16T04:19:34;101202.09;;;6.80;100.00
63808;BME280;49961;43.970;22.868;2023-01-16T04:20:39;101240.69;;;7.04;100.00
63808;BME280;49961;43.970;22.868;2023-01-16T04:21:44;101239.09;;;7.03;100.00
63808;BME280;49961;43.970;22.868;2023-01-16T04:22:49;101240.28;;;7.06;100.00
63808;BME280;49961;43.970;22.868;2023-01-16T04:23:52;101237.53;;;7.06;100.00
63808;BME280;49961;43.970;22.868;2023-01-16T04:24:56;101237.94;;;7.04;100.00
63808;BME280;49961;43.970;22.868;2023-01-16T04:25:57;101236.34;;;6.82;100.00
63808;BME280;49961;43.970;22.868;2023-01-16T04:26:57;101237.13;;;6.79;100.00
63808;BME280;49961;43.970;22.868;2023-01-16T04:27:58;101204.44;;;6.60;100.00
63808;BME280;49961;43.970;22.868;2023-01-16T04:28:58;101240.66;;;6.83;100.00
63808;BME280;49961;43.970;22.868;2023-01-16T04:29:59;101234.38;;;6.79;100.00
63808;BME280;49961;43.970;22.868;2023-01-16T04:30:59;101237.91;;;6.80;100.00
63808;BME280;49961;43.970;22.868;2023-01-16T04:32:00;101185.53;;;6.34;100.00
63808;BME280;49961;43.970;22.868;2023-01-16T04:33:01;101258.75;;;6.70;100.00
63808;BME280;49961;43.970;22.868;2023-01-16T04:34:02;101241.84;;;6.79;100.00
63808;BME280;49961;43.970;22.868;2023-01-16T04:35:04;101244.22;;;6.80;100.00
63808;BME280;49961;43.970;22.868;2023-01-16T04:36:05;101130.81;;;6.12;100.00
63808;BME280;49961;43.970;22.868;2023-01-16T04:37:05;101233.19;;;6.80;100.00
63808;BME280;49961;43.970;22.868;2023-01-16T04:38:06;101174.50;;;6.45;100.00
63808;BME280;49961;43.970;22.868;2023-01-16T04:39:06;101235.94;;;6.80;100.00
63808;BME280;49961;43.970;22.868;2023-01-16T04:40:07;101224.13;;;6.76;100.00
63808;BME280;49961;43.970;22.868;2023-01-16T04:41:09;101227.69;;;6.80;100.00
63808;BME280;49961;43.970;22.868;2023-01-16T04:42:10;101121.38;;;6.16;100.00
63808;BME280;49961;43.970;22.868;2023-01-16T04:43:10;101182.38;;;6.50;100.00
63808;BME280;49961;43.970;22.868;2023-01-16T04:44:11;101213.13;;;6.69;100.00
63808;BME280;49961;43.970;22.868;2023-01-16T04:45:12;101217.44;;;6.70;100.00
63808;BME280;49961;43.970;22.868;2023-01-16T04:46:13;101212.31;;;6.72;100.00
63808;BME280;49961;43.970;22.868;2023-01-16T04:47:13;101213.13;;;6.73;100.00
63808;BME280;49961;43.970;22.868;2023-01-16T04:48:14;101212.72;;;6.74;100.00
63808;BME280;49961;43.970;22.868;2023-01-16T04:49:14;101205.25;;;6.75;100.00
63808;BME280;49961;43.970;22.868;2023-01-16T04:50:15;101215.09;;;6.76;100.00
63808;BME280;49961;43.970;22.868;2023-01-16T04:51:16;101210.78;;;6.78;100.00
63808;BME280;49961;43.970;22.868;2023-01-16T04:52:16;101211.94;;;6.77;100.00
63808;BME280;49961;43.970;22.868;2023-01-16T04:53:17;101217.44;;;6.77;100.00
63808;BME280;49961;43.970;22.868;2023-01-16T04:54:19;101159.19;;;6.44;100.00
63808;BME280;49961;43.970;22.868;2023-01-16T04:55:20;101167.44;;;6.47;100.00
63808;BME280;49961;43.970;22.868;2023-01-16T04:56:20;101213.13;;;6.66;100.00
63808;BME280;49961;43.970;22.868;2023-01-16T04:57:21;101222.53;;;6.61;100.00
63808;BME280;49961;43.970;22.868;2023-01-16T04:58:22;101224.91;;;6.63;100.00
63808;BME280;49961;43.970;22.868;2023-01-16T04:59:22;101228.03;;;6.65;100.00
63808;BME280;49961;43.970;22.868;2023-01-16T05:00:23;101221.34;;;6.55;100.00
63808;BME280;49961;43.970;22.868;2023-01-16T05:01:23;101224.50;;;6.54;100.00
63808;BME280;49961;43.970;22.868;2023-01-16T05:02:24;101216.22;;;6.50;100.00
63808;BME280;49961;43.970;22.868;2023-01-16T05:03:24;101209.16;;;6.53;100.00
63808;BME280;49961;43.970;22.868;2023-01-16T05:04:25;101212.69;;;6.53;100.00
63808;BME280;49961;43.970;22.868;2023-01-16T05:05:25;101219.78;;;6.54;100.00
63808;BME280;49961;43.970;22.868;2023-01-16T05:06:26;101210.72;;;6.54;100.00
63808;BME280;49961;43.970;22.868;2023-01-16T05:07:26;101186.72;;;6.40;100.00
63808;BME280;49961;43.970;22.868;2023-01-16T05:08:27;101193.00;;;6.48;100.00
63808;BME280;49961;43.970;22.868;2023-01-16T05:09:28;101209.16;;;6.60;100.00
63808;BME280;49961;43.970;22.868;2023-01-16T05:10:29;101208.78;;;6.58;100.00
63808;BME280;49961;43.970;22.868;2023-01-16T05:11:29;101204.84;;;6.55;100.00
63808;BME280;49961;43.970;22.868;2023-01-16T05:12:30;101204.84;;;6.59;100.00
63808;BME280;49961;43.970;22.868;2023-01-16T05:13:30;101082.41;;;5.83;100.00
63808;BME280;49961;43.970;22.868;2023-01-16T05:14:31;101159.56;;;6.35;100.00
63808;BME280;49961;43.970;22.868;2023-01-16T05:15:31;101191.06;;;6.55;100.00
63808;BME280;49961;43.970;22.868;2023-01-16T05:16:31;101195.00;;;6.58;100.00
63808;BME280;49961;43.970;22.868;2023-01-16T05:17:32;101192.25;;;6.58;100.00
63808;BME280;49961;43.970;22.868;2023-01-16T05:18:33;101187.53;;;6.58;100.00
63808;BME280;49961;43.970;22.868;2023-01-16T05:19:33;101188.31;;;6.48;100.00
63808;BME280;49961;43.970;22.868;2023-01-16T05:20:34;101193.44;;;6.53;100.00
63808;BME280;49961;43.970;22.868;2023-01-16T05:21:34;101199.72;;;6.54;100.00
63808;BME280;49961;43.970;22.868;2023-01-16T05:22:35;101191.44;;;6.54;100.00
63808;BME280;49961;43.970;22.868;2023-01-16T05:23:35;101196.94;;;6.57;100.00
63808;BME280;49961;43.970;22.868;2023-01-16T05:24:37;101189.09;;;6.59;100.00
63808;BME280;49961;43.970;22.868;2023-01-16T05:25:38;101081.63;;;5.86;100.00
63808;BME280;49961;43.970;22.868;2023-01-16T05:26:39;101190.25;;;6.44;100.00
63808;BME280;49961;43.970;22.868;2023-01-16T05:27:39;101192.63;;;6.46;100.00
63808;BME280;49961;43.970;22.868;2023-01-16T05:28:40;101196.16;;;6.43;100.00
63808;BME280;49961;43.970;22.868;2023-01-16T05:29:40;101195.34;;;6.42;100.00
63808;BME280;49961;43.970;22.868;2023-01-16T05:30:41;101188.28;;;6.34;100.00
63808;BME280;49961;43.970;22.868;2023-01-16T05:31:41;101194.97;;;6.37;100.00
63808;BME280;49961;43.970;22.868;2023-01-16T05:32:43;101193.41;;;6.39;100.00
63808;BME280;49961;43.970;22.868;2023-01-16T05:33:43;101191.81;;;6.35;100.00
63808;BME280;49961;43.970;22.868;2023-01-16T05:34:44;101193.78;;;6.34;100.00
63808;BME280;49961;43.970;22.868;2023-01-16T05:35:46;101192.16;;;6.26;100.00
63808;BME280;49961;43.970;22.868;2023-01-16T05:36:46;101198.03;;;6.07;100.00
63808;BME280;49961;43.970;22.868;2023-01-16T05:37:47;101198.00;;;6.00;100.00
63808;BME280;49961;43.970;22.868;2023-01-16T05:38:47;101190.16;;;6.06;100.00
63808;BME280;49961;43.970;22.868;2023-01-16T05:39:48;101194.88;;;6.09;100.00
63808;BME280;49961;43.970;22.868;2023-01-16T05:40:48;101192.91;;;6.09;100.00
63808;BME280;49961;43.970;22.868;2023-01-16T05:41:49;101189.78;;;6.11;100.00
63808;BME280;49961;43.970;22.868;2023-01-16T05:42:49;101170.84;;;5.99;100.00
63808;BME280;49961;43.970;22.868;2023-01-16T05:43:49;101183.84;;;6.05;100.00
63808;BME280;49961;43.970;22.868;2023-01-16T05:44:51;101191.72;;;5.96;100.00
63808;BME280;49961;43.970;22.868;2023-01-16T05:45:52;101101.44;;;5.34;100.00
63808;BME280;49961;43.970;22.868;2023-01-16T05:46:52;101140.47;;;5.64;100.00
63808;BME280;49961;43.970;22.868;2023-01-16T05:47:53;101192.09;;;6.02;100.00
63808;BME280;49961;43.970;22.868;2023-01-16T05:48:54;101118.06;;;5.62;100.00
63808;BME280;49961;43.970;22.868;2023-01-16T05:49:54;101177.97;;;6.00;100.00
63808;BME280;49961;43.970;22.868;2023-01-16T05:51:00;101174.41;;;6.06;100.00
63808;BME280;49961;43.970;22.868;2023-01-16T05:52:01;101126.38;;;5.79;100.00
63808;BME280;49961;43.970;22.868;2023-01-16T05:53:02;101061.47;;;5.50;100.00
63808;BME280;49961;43.970;22.868;2023-01-16T05:54:02;101156.75;;;6.11;100.00
63808;BME280;49961;43.970;22.868;2023-01-16T05:55:03;101182.34;;;6.22;100.00
63808;BME280;49961;43.970;22.868;2023-01-16T05:56:10;101155.53;;;6.01;100.00
63808;BME280;49961;43.970;22.868;2023-01-16T05:57:11;101183.94;;;6.30;100.00
63808;BME280;49961;43.970;22.868;2023-01-16T05:58:15;101185.09;;;6.18;100.00
63808;BME280;49961;43.970;22.868;2023-01-16T05:59:15;101178.78;;;6.14;100.00
63808;BME280;49961;43.970;22.868;2023-01-16T06:00:16;101180.78;;;6.17;100.00
63808;BME280;49961;43.970;22.868;2023-01-16T06:01:17;101182.72;;;6.20;100.00
63808;BME280;49961;43.970;22.868;2023-01-16T06:02:19;101113.84;;;5.82;100.00
63808;BME280;49961;43.970;22.868;2023-01-16T06:03:19;101181.16;;;6.26;100.00
63808;BME280;49961;43.970;22.868;2023-01-16T06:04:21;101176.84;;;6.29;100.00
63808;BME280;49961;43.970;22.868;2023-01-16T06:05:21;101173.31;;;6.32;100.00
63808;BME280;49961;43.970;22.868;2023-01-16T06:06:22;101072.88;;;5.63;100.00
63808;BME280;49961;43.970;22.868;2023-01-16T06:07:22;101178.06;;;6.38;100.00
63808;BME280;49961;43.970;22.868;2023-01-16T06:08:22;101178.06;;;6.38;100.00
63808;BME280;49961;43.970;22.868;2023-01-16T06:09:23;101006.03;;;5.34;100.00
63808;BME280;49961;43.970;22.868;2023-01-16T06:10:24;101180.00;;;6.34;100.00
63808;BME280;49961;43.970;22.868;2023-01-16T06:11:25;101169.00;;;6.27;100.00
63808;BME280;49961;43.970;22.868;2023-01-16T06:12:26;101174.84;;;6.19;100.00
63808;BME280;49961;43.970;22.868;2023-01-16T06:13:26;101176.78;;;6.11;100.00
63808;BME280;49961;43.970;22.868;2023-01-16T06:14:26;101172.09;;;6.08;100.00
63808;BME280;49961;43.970;22.868;2023-01-16T06:15:27;101162.25;;;6.11;100.00
63808;BME280;49961;43.970;22.868;2023-01-16T06:16:28;101174.91;;;6.29;100.00